Time;durP1;ratioP1;P1;durP2;ratioP2;P2;SDS_P1;SDS_P2;PMS_P1;PMS_P2;Temp;Humidity;BMP_temperature;BMP_pressure;BME280_temperature;BME280_humidity;BME280_pressure;Samples;Min_cycle;Max_cycle;Signal;HPM_P1;HPM_P2
2022/07/16 00:03:31;;;;;;;3.55;1.77;;;;;;;;;;5111476;28;20035;-71
2022/07/16 00:05:57;;;;;;;3.03;1.30;;;;;;;;;;5110900;28;20030;-70
2022/07/16 00:10:44;;;;;;;2.67;1.50;;;;;;;;;;5112189;27;20400;-71
2022/07/16 00:13:10;;;;;;;3.50;1.45;;;;;;;;;;5111038;28;20479;-72
2022/07/16 00:15:36;;;;;;;3.10;1.77;;;;;;;;;;5127185;28;20020;-71
2022/07/16 00:21:44;;;;;;;2.15;1.40;;;;;;;;;;5111407;27;20926;-70
2022/07/16 00:24:10;;;;;;;3.88;1.60;;;;;;;;;;5111410;28;20027;-71
2022/07/16 00:26:37;;;;;;;2.13;1.52;;;;;;;;;;5126718;28;20019;-71
2022/07/16 00:29:03;;;;;;;3.28;1.65;;;;;;;;;;5127223;28;20445;-71
2022/07/16 00:31:29;;;;;;;4.57;2.20;;;;;;;;;;5127066;28;20024;-72
2022/07/16 00:33:55;;;;;;;3.30;1.98;;;;;;;;;;5126710;28;20391;-71
2022/07/16 00:36:21;;;;;;;4.45;2.03;;;;;;;;;;5126979;28;20034;-71
2022/07/16 00:38:57;;;;;;;10.27;2.03;;;;;;;;;;5111629;27;20405;-71
2022/07/16 00:41:23;;;;;;;5.03;2.17;;;;;;;;;;5111574;28;20060;-71
2022/07/16 00:43:50;;;;;;;4.75;2.13;;;;;;;;;;5111644;28;20024;-71
2022/07/16 00:49:21;;;;;;;5.13;2.30;;;;;;;;;;5111534;27;20397;-70
2022/07/16 00:51:49;;;;;;;7.40;1.92;;;;;;;;;;5110156;28;20032;-71
2022/07/16 00:54:15;;;;;;;4.85;1.70;;;;;;;;;;5109669;28;20024;-71
2022/07/16 00:56:41;;;;;;;6.63;2.15;;;;;;;;;;5109985;28;20021;-71
2022/07/16 00:59:07;;;;;;;4.70;2.15;;;;;;;;;;5110032;28;20368;-71
2022/07/16 01:01:34;;;;;;;3.53;1.70;;;;;;;;;;5110851;28;20031;-71
2022/07/16 01:04:03;;;;;;;6.28;1.70;;;;;;;;;;5111223;28;20089;-71
2022/07/16 01:07:25;;;;;;;2.35;1.40;;;;;;;;;;5110998;27;20442;-70
2022/07/16 01:09:51;;;;;;;2.58;1.60;;;;;;;;;;5111378;28;20097;-71
2022/07/16 01:12:17;;;;;;;2.38;1.42;;;;;;;;;;5127210;28;20429;-71
2022/07/16 01:14:44;;;;;;;5.07;1.83;;;;;;;;;;5110835;28;20032;-70
2022/07/16 01:17:10;;;;;;;4.43;1.80;;;;;;;;;;5127105;28;20035;-71
2022/07/16 01:19:36;;;;;;;4.90;1.80;;;;;;;;;;5111230;28;20034;-71
2022/07/16 01:22:03;;;;;;;3.35;1.60;;;;;;;;;;5110858;28;20495;-71
2022/07/16 01:24:29;;;;;;;2.47;1.60;;;;;;;;;;5126875;28;20119;-71
2022/07/16 01:26:55;;;;;;;2.83;1.80;;;;;;;;;;5111178;28;20106;-70
2022/07/16 01:29:21;;;;;;;4.05;2.05;;;;;;;;;;5126479;28;20043;-71
2022/07/16 01:31:47;;;;;;;3.05;1.85;;;;;;;;;;5111000;28;20100;-71
2022/07/16 01:34:25;;;;;;;3.95;1.70;;;;;;;;;;5110957;28;20051;-71
2022/07/16 01:36:55;;;;;;;2.85;1.60;;;;;;;;;;5110606;28;20107;-71
2022/07/16 01:40:06;;;;;;;4.97;1.50;;;;;;;;;;5111548;27;20420;-71
2022/07/16 01:46:59;;;;;;;2.92;1.77;;;;;;;;;;5112208;27;20458;-70
2022/07/16 01:49:30;;;;;;;5.60;1.80;;;;;;;;;;5111088;28;20034;-71
2022/07/16 01:53:29;;;;;;;4.63;2.00;;;;;;;;;;5112198;27;20962;-71
2022/07/16 01:55:55;;;;;;;3.85;2.08;;;;;;;;;;5111416;28;20074;-71
2022/07/16 01:58:21;;;;;;;3.78;1.90;;;;;;;;;;5126988;28;20430;-71
2022/07/16 02:01:51;;;;;;;2.97;1.48;;;;;;;;;;5111917;27;20473;-71
2022/07/16 02:04:17;;;;;;;2.83;1.63;;;;;;;;;;5111080;28;20028;-71
2022/07/16 02:06:59;;;;;;;3.25;1.70;;;;;;;;;;5111744;27;20454;-71
2022/07/16 02:09:26;;;;;;;3.78;1.73;;;;;;;;;;5111419;28;20031;-70
2022/07/16 02:11:52;;;;;;;2.58;1.55;;;;;;;;;;5110947;28;20090;-71
2022/07/16 02:14:18;;;;;;;4.65;1.80;;;;;;;;;;5110108;28;20024;-71
2022/07/16 02:16:44;;;;;;;4.20;1.80;;;;;;;;;;5111276;28;20027;-70
2022/07/16 02:23:00;;;;;;;2.55;1.55;;;;;;;;;;5091270;27;20420;-71
2022/07/16 02:27:22;;;;;;;1.92;1.40;;;;;;;;;;5111658;27;20396;-71
2022/07/16 02:29:48;;;;;;;6.35;1.90;;;;;;;;;;5111444;28;20028;-72
2022/07/16 02:34:08;;;;;;;3.20;1.90;;;;;;;;;;5111578;27;20123;-71
2022/07/16 02:36:34;;;;;;;3.72;2.17;;;;;;;;;;5110157;28;20123;-71
2022/07/16 02:41:10;;;;;;;3.22;1.73;;;;;;;;;;5112173;27;20883;-72
2022/07/16 02:43:36;;;;;;;3.20;1.70;;;;;;;;;;5127161;28;20020;-71
2022/07/16 02:52:44;;;;;;;9.00;2.67;;;;;;;;;;5111050;27;20412;-70
2022/07/16 02:55:10;;;;;;;7.22;3.28;;;;;;;;;;5111473;28;20028;-71
2022/07/16 02:58:40;;;;;;;8.98;3.20;;;;;;;;;;5111557;27;20397;-71
2022/07/16 03:01:06;;;;;;;7.90;3.20;;;;;;;;;;5111022;28;20031;-71
2022/07/16 03:04:26;;;;;;;5.88;3.05;;;;;;;;;;5111570;27;20396;-72
2022/07/16 03:08:47;;;;;;;6.45;2.63;;;;;;;;;;5110923;27;20113;-71
2022/07/16 03:11:13;;;;;;;6.88;2.50;;;;;;;;;;5111386;28;20031;-71
2022/07/16 03:13:39;;;;;;;5.45;2.65;;;;;;;;;;5110049;28;20016;-72
2022/07/16 03:17:02;;;;;;;8.10;2.63;;;;;;;;;;5111933;27;20400;-71
2022/07/16 03:19:28;;;;;;;7.18;2.83;;;;;;;;;;5110132;28;20407;-70
2022/07/16 03:21:54;;;;;;;8.32;2.38;;;;;;;;;;5109574;28;20058;-71
2022/07/16 03:24:42;;;;;;;8.82;2.88;;;;;;;;;;5111888;27;20440;-71
2022/07/16 03:27:08;;;;;;;6.75;2.80;;;;;;;;;;5111354;28;20019;-70
2022/07/16 03:29:34;;;;;;;5.03;2.25;;;;;;;;;;5110945;28;20099;-71
2022/07/16 03:33:58;;;;;;;5.22;2.35;;;;;;;;;;5111809;27;20803;-72
2022/07/16 03:36:26;;;;;;;3.60;1.90;;;;;;;;;;5111043;28;20085;-71
2022/07/16 03:39:04;;;;;;;5.10;2.10;;;;;;;;;;5111469;28;20026;-72
2022/07/16 03:41:31;;;;;;;6.85;2.35;;;;;;;;;;5127288;28;20035;-71
2022/07/16 03:43:58;;;;;;;5.75;2.33;;;;;;;;;;5126736;28;20032;-71
2022/07/16 03:46:25;;;;;;;5.85;2.75;;;;;;;;;;5127097;28;20490;-71
2022/07/16 03:50:44;;;;;;;5.65;2.40;;;;;;;;;;5111170;27;20419;-71
2022/07/16 03:53:29;;;;;;;3.95;2.28;;;;;;;;;;5112298;27;20393;-71
2022/07/16 03:55:55;;;;;;;4.25;2.20;;;;;;;;;;5110996;28;20020;-71
2022/07/16 03:58:21;;;;;;;5.70;2.15;;;;;;;;;;5111439;28;20019;-72
2022/07/16 04:01:30;;;;;;;9.25;2.20;;;;;;;;;;5111547;27;20772;-71
2022/07/16 04:03:56;;;;;;;4.00;2.40;;;;;;;;;;5111324;28;20035;-71
2022/07/16 04:06:22;;;;;;;5.50;2.80;;;;;;;;;;5111500;28;20099;-71
2022/07/16 04:09:41;;;;;;;6.95;2.80;;;;;;;;;;5111878;27;20380;-71
2022/07/16 04:12:56;;;;;;;8.57;3.30;;;;;;;;;;5112258;27;20392;-71
2022/07/16 04:15:22;;;;;;;9.07;4.28;;;;;;;;;;5111361;28;20081;-71
2022/07/16 04:17:48;;;;;;;9.88;3.85;;;;;;;;;;5110941;28;20020;-71
2022/07/16 04:23:14;;;;;;;9.27;3.90;;;;;;;;;;5111846;27;20310;-72
2022/07/16 04:27:04;;;;;;;8.55;2.92;;;;;;;;;;5092314;27;20494;-72
2022/07/16 04:29:30;;;;;;;8.15;3.08;;;;;;;;;;5091092;28;20024;-71
2022/07/16 04:31:56;;;;;;;5.07;2.33;;;;;;;;;;5090594;28;20100;-71
2022/07/16 04:34:22;;;;;;;6.35;2.80;;;;;;;;;;5091099;28;20519;-71
2022/07/16 04:36:48;;;;;;;6.05;2.58;;;;;;;;;;5090910;28;20024;-72
2022/07/16 04:39:14;;;;;;;6.13;2.58;;;;;;;;;;5106136;28;20052;-71
2022/07/16 04:41:41;;;;;;;7.03;2.97;;;;;;;;;;5090902;28;20452;-71
2022/07/16 04:45:51;;;;;;;6.25;3.08;;;;;;;;;;5111552;27;20458;-72
2022/07/16 04:48:17;;;;;;;5.82;2.78;;;;;;;;;;5111380;28;20420;-71
2022/07/16 04:50:43;;;;;;;6.75;3.15;;;;;;;;;;5111339;28;20020;-71
2022/07/16 04:53:09;;;;;;;5.10;2.45;;;;;;;;;;5109666;28;20038;-71
2022/07/16 04:56:53;;;;;;;8.98;4.25;;;;;;;;;;5112209;27;20884;-71
2022/07/16 04:59:19;;;;;;;13.82;6.05;;;;;;;;;;5110992;28;20054;-72
2022/07/16 05:04:53;;;;;;;12.23;5.97;;;;;;;;;;5111488;28;20140;-72
2022/07/16 05:10:53;;;;;;;15.65;5.18;;;;;;;;;;5111581;27;20396;-71
2022/07/16 05:14:04;;;;;;;10.50;4.88;;;;;;;;;;5111085;27;20396;-71
2022/07/16 05:17:35;;;;;;;12.73;5.82;;;;;;;;;;5112217;27;20441;-71
2022/07/16 05:20:01;;;;;;;16.20;6.88;;;;;;;;;;5111439;28;20024;-71
2022/07/16 05:22:27;;;;;;;13.77;6.18;;;;;;;;;;5110937;28;20028;-72
2022/07/16 05:25:08;;;;;;;9.13;4.50;;;;;;;;;;5111894;27;20438;-71
2022/07/16 05:27:35;;;;;;;6.80;3.00;;;;;;;;;;5109709;28;20442;-72
2022/07/16 05:30:01;;;;;;;8.48;2.78;;;;;;;;;;5110074;28;20020;-72
2022/07/16 05:32:27;;;;;;;4.85;2.50;;;;;;;;;;5111264;28;20045;-72
2022/07/16 05:34:53;;;;;;;4.18;2.10;;;;;;;;;;5110944;28;20023;-72
2022/07/16 05:37:51;;;;;;;5.45;2.33;;;;;;;;;;5111584;27;20430;-72
2022/07/16 05:40:17;;;;;;;8.25;2.10;;;;;;;;;;5111686;28;20088;-72
2022/07/16 05:42:43;;;;;;;3.88;2.03;;;;;;;;;;5110899;28;20024;-72
2022/07/16 05:45:25;;;;;;;3.38;1.70;;;;;;;;;;5111543;27;20416;-71
2022/07/16 05:49:39;;;;;;;3.22;1.45;;;;;;;;;;5111366;27;20392;-71
2022/07/16 05:55:55;;;;;;;3.45;1.23;;;;;;;;;;5111627;27;20784;-71
2022/07/16 05:58:22;;;;;;;2.83;1.70;;;;;;;;;;5111668;28;20028;-71
2022/07/16 06:00:48;;;;;;;4.57;1.80;;;;;;;;;;5111309;28;20382;-71
2022/07/16 06:03:14;;;;;;;4.25;1.52;;;;;;;;;;5110866;28;20464;-71
2022/07/16 06:05:40;;;;;;;2.47;1.65;;;;;;;;;;5127126;28;20123;-71
2022/07/16 06:08:06;;;;;;;3.42;1.65;;;;;;;;;;5111235;28;20095;-71
2022/07/16 06:10:32;;;;;;;5.55;1.80;;;;;;;;;;5110823;28;20042;-71
2022/07/16 06:31:48;;;;;;;2.70;1.48;;;;;;;;;;5111348;27;20113;-73
2022/07/16 06:36:08;;;;;;;4.65;1.90;;;;;;;;;;5111626;27;20416;-71
2022/07/16 06:38:34;;;;;;;4.53;2.00;;;;;;;;;;5111326;28;20028;-72
2022/07/16 06:41:00;;;;;;;3.03;1.65;;;;;;;;;;5110957;28;20099;-72
2022/07/16 06:44:50;;;;;;;4.72;2.10;;;;;;;;;;5112159;27;20453;-72
2022/07/16 06:47:16;;;;;;;3.80;2.47;;;;;;;;;;5111297;28;20449;-72
2022/07/16 06:52:23;;;;;;;3.00;1.70;;;;;;;;;;5111660;27;20125;-72
2022/07/16 06:55:54;;;;;;;3.13;1.92;;;;;;;;;;5111184;27;20392;-72
2022/07/16 06:58:21;;;;;;;3.70;1.85;;;;;;;;;;5127141;28;20491;-72
2022/07/16 07:00:47;;;;;;;2.42;1.35;;;;;;;;;;5111301;28;20047;-73
2022/07/16 07:04:18;;;;;;;3.28;1.77;;;;;;;;;;5050634;28;20408;-72
2022/07/16 07:06:44;;;;;;;6.35;1.70;;;;;;;;;;5049570;28;20036;-72
2022/07/16 07:09:10;;;;;;;3.17;1.88;;;;;;;;;;5049055;28;20098;-73
2022/07/16 07:11:37;;;;;;;3.03;1.80;;;;;;;;;;5050638;28;20079;-73
2022/07/16 07:15:37;;;;;;;4.32;1.80;;;;;;;;;;5051447;27;20868;-72
2022/07/16 07:18:03;;;;;;;2.92;1.88;;;;;;;;;;5049313;28;20021;-74
2022/07/16 07:20:30;;;;;;;2.97;1.70;;;;;;;;;;5050765;28;20017;-72
2022/07/16 07:24:22;;;;;;;3.63;1.65;;;;;;;;;;5111416;27;20405;-73
2022/07/16 07:28:36;;;;;;;5.93;1.80;;;;;;;;;;5111753;27;20454;-73
2022/07/16 07:31:02;;;;;;;4.68;1.70;;;;;;;;;;5111006;28;20027;-73
2022/07/16 07:33:29;;;;;;;2.58;1.63;;;;;;;;;;5110016;28;20047;-72
2022/07/16 07:36:51;;;;;;;2.20;1.58;;;;;;;;;;5112058;27;20736;-72
2022/07/16 07:39:17;;;;;;;3.03;1.42;;;;;;;;;;5111065;28;20102;-72
2022/07/16 07:41:43;;;;;;;3.60;1.83;;;;;;;;;;5111294;28;20028;-72
2022/07/16 07:44:10;;;;;;;3.10;1.75;;;;;;;;;;5127041;28;20026;-72
2022/07/16 07:46:36;;;;;;;4.55;1.75;;;;;;;;;;5110772;28;20099;-72
2022/07/16 07:49:02;;;;;;;3.22;1.83;;;;;;;;;;5111145;28;20028;-72
2022/07/16 07:53:12;;;;;;;4.03;1.55;;;;;;;;;;5111077;27;20388;-72
2022/07/16 07:55:38;;;;;;;3.70;2.30;;;;;;;;;;5111483;28;20020;-72
2022/07/16 07:58:05;;;;;;;5.05;1.90;;;;;;;;;;5110002;28;20020;-72
2022/07/16 08:00:31;;;;;;;6.50;1.70;;;;;;;;;;5109661;28;20379;-72
2022/07/16 08:03:22;;;;;;;2.58;1.85;;;;;;;;;;5031687;28;20418;-72
2022/07/16 08:05:48;;;;;;;2.92;1.48;;;;;;;;;;5030558;28;20025;-72
2022/07/16 08:08:15;;;;;;;3.58;2.17;;;;;;;;;;5029485;28;20037;-72
2022/07/16 08:10:41;;;;;;;3.28;2.00;;;;;;;;;;5030951;28;20028;-72
2022/07/16 08:13:07;;;;;;;3.08;1.50;;;;;;;;;;5030301;28;20026;-72
2022/07/16 08:15:34;;;;;;;4.50;1.60;;;;;;;;;;5030750;28;20034;-72
2022/07/16 08:18:00;;;;;;;2.50;1.38;;;;;;;;;;5029375;28;20125;-72
2022/07/16 08:20:26;;;;;;;2.58;1.40;;;;;;;;;;5030170;28;20029;-72
2022/07/16 08:22:52;;;;;;;3.15;1.52;;;;;;;;;;5030684;28;20125;-72
2022/07/16 08:28:03;;;;;;;2.60;1.70;;;;;;;;;;5030396;28;20592;-73
2022/07/16 08:30:29;;;;;;;3.63;1.70;;;;;;;;;;5030499;28;20022;-73
2022/07/16 08:32:55;;;;;;;3.10;1.77;;;;;;;;;;5030493;28;20018;-73
2022/07/16 08:35:21;;;;;;;3.20;2.10;;;;;;;;;;5028760;28;20026;-73
2022/07/16 08:37:48;;;;;;;2.97;1.65;;;;;;;;;;5030445;28;20057;-73
2022/07/16 08:40:16;;;;;;;3.38;1.60;;;;;;;;;;5028999;28;20030;-73
2022/07/16 08:42:42;;;;;;;3.33;1.80;;;;;;;;;;5028545;28;20041;-73
2022/07/16 08:45:09;;;;;;;3.05;1.60;;;;;;;;;;5030527;28;20037;-73
2022/07/16 08:47:36;;;;;;;4.55;1.73;;;;;;;;;;5029832;28;20050;-73
2022/07/16 08:50:04;;;;;;;2.97;1.50;;;;;;;;;;5030088;28;20123;-73
2022/07/16 08:52:31;;;;;;;2.85;1.60;;;;;;;;;;5030217;28;20030;-73
2022/07/16 08:54:58;;;;;;;8.35;2.58;;;;;;;;;;5029585;28;20097;-73
2022/07/16 08:57:24;;;;;;;4.40;1.95;;;;;;;;;;5030064;28;20049;-73
2022/07/16 08:59:52;;;;;;;2.58;1.42;;;;;;;;;;5029872;28;20026;-74
2022/07/16 09:02:18;;;;;;;4.20;1.70;;;;;;;;;;5029268;28;20128;-73
2022/07/16 09:04:44;;;;;;;2.88;1.55;;;;;;;;;;5028463;28;20087;-73
2022/07/16 09:07:14;;;;;;;1.98;1.42;;;;;;;;;;5029701;28;20433;-73
2022/07/16 09:09:41;;;;;;;4.60;1.90;;;;;;;;;;5029443;28;20049;-73
2022/07/16 09:12:07;;;;;;;4.50;1.77;;;;;;;;;;5030020;28;20024;-74
2022/07/16 09:14:33;;;;;;;3.88;1.67;;;;;;;;;;5017252;28;20049;-73
2022/07/16 09:17:01;;;;;;;2.38;1.42;;;;;;;;;;5015968;28;20022;-73
2022/07/16 09:19:28;;;;;;;6.97;3.03;;;;;;;;;;5015102;28;20433;-74
2022/07/16 09:22:00;;;;;;;6.45;3.03;;;;;;;;;;5016280;28;20029;-73
2022/07/16 09:24:40;;;;;;;6.55;2.63;;;;;;;;;;5015969;28;20135;-74
2022/07/16 09:27:06;;;;;;;4.13;2.45;;;;;;;;;;5015003;28;20041;-73
2022/07/16 09:29:47;;;;;;;5.40;2.47;;;;;;;;;;5016276;28;20097;-73
2022/07/16 09:32:26;;;;;;;6.15;2.28;;;;;;;;;;5016608;28;20105;-73
2022/07/16 09:35:03;;;;;;;4.45;1.95;;;;;;;;;;5015409;28;20030;-73
2022/07/16 09:37:44;;;;;;;2.35;1.55;;;;;;;;;;5014293;28;20057;-73
2022/07/16 09:40:10;;;;;;;2.63;1.58;;;;;;;;;;5016209;28;20076;-73
2022/07/16 09:42:40;;;;;;;2.28;1.40;;;;;;;;;;5015885;28;20084;-73
2022/07/16 09:45:07;;;;;;;2.83;1.42;;;;;;;;;;5015528;28;20052;-73
2022/07/16 09:47:33;;;;;;;3.15;1.55;;;;;;;;;;5015880;28;20037;-74
2022/07/16 09:50:01;;;;;;;3.72;1.67;;;;;;;;;;5015793;28;20504;-73
2022/07/16 09:52:34;;;;;;;2.83;1.70;;;;;;;;;;5015392;28;20030;-74
2022/07/16 09:55:01;;;;;;;4.70;2.00;;;;;;;;;;5014401;28;20418;-73
2022/07/16 09:57:28;;;;;;;3.15;1.40;;;;;;;;;;5016173;28;20032;-74
2022/07/16 09:59:55;;;;;;;2.90;1.60;;;;;;;;;;5013921;28;20021;-73
2022/07/16 10:02:22;;;;;;;3.38;1.67;;;;;;;;;;5015265;28;20409;-74
2022/07/16 10:04:48;;;;;;;1.55;1.30;;;;;;;;;;5015543;28;20098;-73
2022/07/16 10:07:16;;;;;;;3.58;1.50;;;;;;;;;;5015183;28;20021;-73
2022/07/16 10:09:42;;;;;;;1.92;1.50;;;;;;;;;;5014267;28;20071;-73
2022/07/16 10:12:12;;;;;;;2.90;1.52;;;;;;;;;;5014987;28;20022;-73
2022/07/16 10:14:41;;;;;;;2.45;1.40;;;;;;;;;;5014109;28;20022;-73
2022/07/16 10:17:21;;;;;;;1.92;1.40;;;;;;;;;;5015460;28;20080;-73
2022/07/16 10:20:08;;;;;;;2.13;1.38;;;;;;;;;;5015115;28;20029;-73
2022/07/16 10:22:39;;;;;;;1.88;1.10;;;;;;;;;;5015253;28;20540;-73
2022/07/16 10:25:12;;;;;;;2.47;1.45;;;;;;;;;;5014244;28;20491;-74
2022/07/16 10:27:38;;;;;;;2.55;1.33;;;;;;;;;;5014699;28;20087;-74
2022/07/16 10:30:08;;;;;;;2.50;0.98;;;;;;;;;;5014981;28;20093;-74
2022/07/16 10:32:54;;;;;;;1.55;1.20;;;;;;;;;;5014962;28;20473;-74
2022/07/16 10:35:28;;;;;;;2.15;1.13;;;;;;;;;;5012993;28;20030;-74
2022/07/16 10:38:05;;;;;;;1.85;1.15;;;;;;;;;;5015140;28;20022;-74
2022/07/16 10:40:32;;;;;;;1.98;1.10;;;;;;;;;;5013119;28;20076;-74
2022/07/16 10:43:13;;;;;;;5.25;1.20;;;;;;;;;;5014651;28;20437;-73
2022/07/16 10:46:08;;;;;;;2.25;1.20;;;;;;;;;;5014661;28;20026;-73
2022/07/16 10:48:37;;;;;;;2.08;1.05;;;;;;;;;;5013626;28;20555;-73
2022/07/16 10:51:17;;;;;;;1.48;1.00;;;;;;;;;;5013456;28;20030;-73
2022/07/16 10:54:01;;;;;;;1.95;1.17;;;;;;;;;;5014633;28;20081;-73
2022/07/16 10:56:34;;;;;;;2.25;1.15;;;;;;;;;;5014130;28;20021;-73
2022/07/16 10:59:02;;;;;;;2.08;1.13;;;;;;;;;;5014560;28;20022;-73
2022/07/16 11:01:29;;;;;;;2.25;1.08;;;;;;;;;;5013775;28;20516;-73
2022/07/16 11:03:55;;;;;;;3.83;1.33;;;;;;;;;;5013261;28;20022;-74
2022/07/16 11:06:22;;;;;;;2.35;1.10;;;;;;;;;;5014383;28;20033;-73
2022/07/16 11:08:57;;;;;;;2.45;0.93;;;;;;;;;;5014148;28;20017;-73
2022/07/16 11:11:23;;;;;;;3.53;1.58;;;;;;;;;;5013015;28;20026;-73
2022/07/16 11:13:53;;;;;;;1.50;1.10;;;;;;;;;;5014357;28;20466;-73
2022/07/16 11:16:19;;;;;;;2.25;1.48;;;;;;;;;;5012512;28;20061;-73
2022/07/16 11:18:45;;;;;;;1.38;1.23;;;;;;;;;;5014136;28;20512;-73
2022/07/16 11:21:12;;;;;;;1.48;1.10;;;;;;;;;;5014076;28;20104;-73
2022/07/16 11:23:48;;;;;;;3.83;1.02;;;;;;;;;;5013729;28;20022;-73
2022/07/16 11:26:14;;;;;;;2.88;1.30;;;;;;;;;;5014241;28;20022;-73
2022/07/16 11:28:58;;;;;;;3.53;1.50;;;;;;;;;;5013970;28;20030;-73
2022/07/16 11:31:26;;;;;;;8.43;1.40;;;;;;;;;;5011911;28;20418;-74
2022/07/16 11:33:53;;;;;;;3.50;1.20;;;;;;;;;;5012590;28;20109;-74
2022/07/16 11:36:19;;;;;;;4.90;2.33;;;;;;;;;;5013168;28;20025;-73
2022/07/16 11:38:46;;;;;;;3.65;1.90;;;;;;;;;;5014258;28;20397;-73
2022/07/16 11:41:12;;;;;;;1.67;1.10;;;;;;;;;;5013773;28;20030;-73
2022/07/16 11:43:38;;;;;;;2.72;1.13;;;;;;;;;;5012105;28;20465;-73
2022/07/16 11:46:05;;;;;;;1.60;1.33;;;;;;;;;;5013739;28;20101;-73
2022/07/16 11:48:36;;;;;;;3.17;1.40;;;;;;;;;;5013977;28;20030;-73
2022/07/16 11:51:06;;;;;;;3.43;1.23;;;;;;;;;;5013212;28;20378;-72
2022/07/16 11:53:36;;;;;;;2.42;1.45;;;;;;;;;;5013676;28;20030;-72
2022/07/16 11:56:02;;;;;;;3.40;1.00;;;;;;;;;;5013613;28;20052;-73
2022/07/16 11:58:29;;;;;;;3.33;1.10;;;;;;;;;;5013219;28;20026;-73
2022/07/16 12:00:55;;;;;;;2.95;1.30;;;;;;;;;;5013419;28;20478;-73
2022/07/16 12:03:21;;;;;;;2.67;1.40;;;;;;;;;;5013525;28;20584;-73
2022/07/16 12:05:47;;;;;;;2.97;1.40;;;;;;;;;;5013351;28;20022;-72
2022/07/16 12:08:14;;;;;;;4.20;1.42;;;;;;;;;;5013729;28;20084;-72
2022/07/16 12:10:40;;;;;;;1.83;1.10;;;;;;;;;;5013782;28;20414;-73
2022/07/16 12:13:08;;;;;;;1.92;1.20;;;;;;;;;;5013311;28;20018;-73
2022/07/16 12:15:53;;;;;;;4.07;2.53;;;;;;;;;;5013497;28;20026;-72
2022/07/16 12:18:20;;;;;;;2.72;1.67;;;;;;;;;;5013822;28;20018;-73
2022/07/16 12:20:46;;;;;;;2.90;1.58;;;;;;;;;;5013363;28;20528;-72
2022/07/16 12:23:14;;;;;;;4.35;2.55;;;;;;;;;;5013389;28;20042;-73
2022/07/16 12:25:41;;;;;;;5.40;1.80;;;;;;;;;;5011608;28;20049;-73
2022/07/16 12:28:08;;;;;;;4.18;1.73;;;;;;;;;;5013357;28;20072;-73
2022/07/16 12:30:41;;;;;;;6.72;3.50;;;;;;;;;;5012088;28;20062;-74
2022/07/16 12:33:09;;;;;;;3.53;1.77;;;;;;;;;;5012978;28;20042;-74
2022/07/16 12:35:41;;;;;;;1.33;1.20;;;;;;;;;;5013811;28;20048;-73
2022/07/16 12:38:08;;;;;;;2.58;1.10;;;;;;;;;;5011994;28;20381;-74
2022/07/16 12:40:34;;;;;;;1.80;1.08;;;;;;;;;;5012846;28;20030;-73
2022/07/16 12:43:01;;;;;;;2.38;1.35;;;;;;;;;;5013202;28;20057;-73
2022/07/16 12:45:27;;;;;;;3.78;1.23;;;;;;;;;;5013147;28;20041;-73
2022/07/16 12:47:54;;;;;;;3.17;1.27;;;;;;;;;;5011716;28;20026;-73
2022/07/16 12:50:20;;;;;;;2.53;1.02;;;;;;;;;;5016920;28;20064;-74
2022/07/16 12:52:46;;;;;;;3.03;1.77;;;;;;;;;;5015452;28;20117;-74
2022/07/16 13:00:42;;;;;;;2.85;1.10;;;;;;;;;;5016327;28;20029;-74
2022/07/16 13:03:08;;;;;;;3.25;0.90;;;;;;;;;;5016271;28;20045;-73
2022/07/16 13:05:34;;;;;;;2.00;1.10;;;;;;;;;;5016610;28;20402;-73
2022/07/16 13:08:00;;;;;;;2.30;1.05;;;;;;;;;;5016328;28;20026;-73
2022/07/16 13:10:26;;;;;;;1.50;1.00;;;;;;;;;;5015090;28;20058;-73
2022/07/16 13:12:52;;;;;;;1.88;1.13;;;;;;;;;;5016954;28;20037;-73
2022/07/16 13:15:19;;;;;;;3.35;1.40;;;;;;;;;;5016155;28;20030;-73
2022/07/16 13:17:45;;;;;;;2.40;1.20;;;;;;;;;;5016769;28;20414;-73
2022/07/16 13:20:13;;;;;;;2.22;1.00;;;;;;;;;;5016416;28;20030;-73
2022/07/16 13:22:39;;;;;;;1.58;1.00;;;;;;;;;;5015860;28;20539;-73
2022/07/16 13:25:06;;;;;;;1.75;1.17;;;;;;;;;;5016190;28;20053;-73
2022/07/16 13:27:32;;;;;;;2.60;0.88;;;;;;;;;;5016266;28;20037;-73
2022/07/16 13:29:58;;;;;;;1.63;1.00;;;;;;;;;;5015912;28;20037;-73
2022/07/16 13:32:24;;;;;;;1.85;1.08;;;;;;;;;;5016367;28;20429;-74
2022/07/16 13:34:50;;;;;;;2.05;0.80;;;;;;;;;;5014875;28;20474;-74
2022/07/16 13:37:16;;;;;;;1.70;1.10;;;;;;;;;;5015661;28;20030;-74
2022/07/16 13:39:43;;;;;;;3.42;1.13;;;;;;;;;;5016077;28;20107;-73
2022/07/16 13:42:09;;;;;;;3.78;1.35;;;;;;;;;;5016021;28;20040;-74
2022/07/16 13:44:35;;;;;;;1.13;0.95;;;;;;;;;;5015639;28;20422;-73
2022/07/16 13:47:01;;;;;;;1.92;1.15;;;;;;;;;;5015809;28;20065;-73
2022/07/16 13:49:27;;;;;;;1.90;1.00;;;;;;;;;;5015971;28;20029;-74
2022/07/16 13:51:53;;;;;;;3.38;1.15;;;;;;;;;;5015548;28;20018;-73
2022/07/16 13:54:19;;;;;;;1.35;1.13;;;;;;;;;;5015692;28;20034;-74
2022/07/16 13:56:46;;;;;;;1.35;1.00;;;;;;;;;;5015466;28;20032;-74
2022/07/16 13:59:12;;;;;;;3.08;1.05;;;;;;;;;;5013891;28;20041;-73
2022/07/16 14:01:38;;;;;;;0.73;0.70;;;;;;;;;;5015338;28;20057;-74
2022/07/16 14:04:09;;;;;;;2.70;0.80;;;;;;;;;;5015169;28;20022;-73
2022/07/16 14:06:36;;;;;;;1.02;0.88;;;;;;;;;;5015758;28;20022;-74
2022/07/16 14:09:03;;;;;;;2.20;1.00;;;;;;;;;;5014264;28;20053;-73
2022/07/16 14:11:29;;;;;;;1.50;0.90;;;;;;;;;;5015242;28;20026;-73
2022/07/16 14:13:55;;;;;;;1.92;0.88;;;;;;;;;;5015365;28;20036;-73
2022/07/16 14:16:21;;;;;;;3.45;1.00;;;;;;;;;;5014166;28;20386;-73
2022/07/16 14:18:47;;;;;;;1.65;1.05;;;;;;;;;;5013704;28;20026;-73
2022/07/16 14:21:13;;;;;;;1.27;0.82;;;;;;;;;;5015246;28;20532;-73
2022/07/16 14:23:40;;;;;;;4.93;0.80;;;;;;;;;;5015294;28;20057;-73
2022/07/16 14:26:06;;;;;;;0.98;0.88;;;;;;;;;;5014759;28;20033;-73
2022/07/16 14:28:32;;;;;;;1.90;0.90;;;;;;;;;;5015613;28;20041;-72
2022/07/16 14:30:58;;;;;;;2.67;1.00;;;;;;;;;;5015095;28;20033;-72
2022/07/16 14:33:24;;;;;;;1.48;0.70;;;;;;;;;;5013431;28;20026;-72
2022/07/16 14:35:51;;;;;;;1.75;0.65;;;;;;;;;;5014991;28;20032;-73
2022/07/16 14:38:17;;;;;;;2.60;0.98;;;;;;;;;;5013538;28;20021;-73
2022/07/16 14:40:43;;;;;;;1.55;0.70;;;;;;;;;;5014579;28;20367;-73
2022/07/16 14:43:09;;;;;;;3.13;1.13;;;;;;;;;;5015101;28;20112;-73
2022/07/16 14:45:35;;;;;;;1.88;0.90;;;;;;;;;;5014860;28;20492;-73
2022/07/16 14:48:01;;;;;;;2.53;1.10;;;;;;;;;;5014353;28;20141;-74
2022/07/16 14:50:27;;;;;;;1.83;0.90;;;;;;;;;;5014743;28;20050;-74
2022/07/16 14:52:53;;;;;;;1.30;0.80;;;;;;;;;;5014993;28;20022;-74
2022/07/16 14:55:20;;;;;;;2.97;1.10;;;;;;;;;;5014371;28;20101;-74
2022/07/16 14:57:46;;;;;;;2.13;1.08;;;;;;;;;;5014615;28;20057;-74
2022/07/16 15:00:14;;;;;;;0.95;0.70;;;;;;;;;;5014210;28;20030;-74
2022/07/16 15:02:40;;;;;;;2.33;1.15;;;;;;;;;;5014203;28;20049;-74
2022/07/16 15:05:07;;;;;;;3.03;0.93;;;;;;;;;;5014521;28;20018;-74
2022/07/16 15:07:33;;;;;;;2.13;0.95;;;;;;;;;;5014053;28;20546;-73
2022/07/16 15:09:59;;;;;;;3.33;1.10;;;;;;;;;;5014412;28;20022;-74
2022/07/16 15:12:25;;;;;;;2.30;1.10;;;;;;;;;;5013980;28;20026;-74
2022/07/16 15:14:51;;;;;;;2.17;1.45;;;;;;;;;;5014023;28;20022;-74
2022/07/16 15:17:17;;;;;;;6.40;1.15;;;;;;;;;;5014727;28;20053;-73
2022/07/16 15:19:44;;;;;;;4.60;1.17;;;;;;;;;;5014496;28;20488;-73
2022/07/16 15:22:10;;;;;;;2.67;1.10;;;;;;;;;;5013819;28;20048;-76
2022/07/16 15:24:36;;;;;;;1.70;0.90;;;;;;;;;;5013127;28;20025;-72
2022/07/16 15:27:02;;;;;;;2.47;1.27;;;;;;;;;;5014223;28;20470;-73
2022/07/16 15:29:28;;;;;;;3.08;1.10;;;;;;;;;;5013795;28;20026;-73
2022/07/16 15:31:54;;;;;;;2.15;1.20;;;;;;;;;;5014378;28;20029;-73
2022/07/16 15:34:21;;;;;;;3.00;1.30;;;;;;;;;;5014020;28;20049;-75
2022/07/16 15:36:47;;;;;;;2.45;1.30;;;;;;;;;;5013750;28;20022;-73
2022/07/16 15:39:13;;;;;;;1.63;1.00;;;;;;;;;;5012771;28;20041;-74
2022/07/16 15:41:39;;;;;;;2.90;1.23;;;;;;;;;;5014127;28;20030;-76
2022/07/16 15:44:06;;;;;;;2.70;1.38;;;;;;;;;;5012315;28;20033;-74
2022/07/16 15:46:32;;;;;;;3.25;1.30;;;;;;;;;;5013921;28;20022;-72
2022/07/16 15:49:00;;;;;;;1.80;1.05;;;;;;;;;;5013876;28;20022;-73
2022/07/16 15:51:27;;;;;;;6.63;1.50;;;;;;;;;;5012180;28;20553;-73
2022/07/16 15:53:53;;;;;;;8.38;3.78;;;;;;;;;;5013775;28;20029;-73
2022/07/16 15:56:19;;;;;;;5.20;2.00;;;;;;;;;;5013721;28;20076;-73
2022/07/16 15:58:45;;;;;;;2.83;1.20;;;;;;;;;;5013434;28;20030;-73
2022/07/16 16:01:13;;;;;;;3.28;1.38;;;;;;;;;;5013861;28;20382;-73
2022/07/16 16:03:39;;;;;;;3.58;1.40;;;;;;;;;;5013418;28;20026;-73
2022/07/16 16:06:05;;;;;;;6.05;1.77;;;;;;;;;;5013783;28;20018;-73
2022/07/16 16:08:31;;;;;;;1.40;0.90;;;;;;;;;;5013648;28;20112;-73
2022/07/16 16:10:58;;;;;;;2.28;1.20;;;;;;;;;;5013641;28;20022;-73
2022/07/16 16:13:24;;;;;;;2.25;1.33;;;;;;;;;;5013600;28;20029;-74
2022/07/16 16:15:50;;;;;;;1.35;1.00;;;;;;;;;;5013495;28;20108;-73
2022/07/16 16:18:16;;;;;;;2.30;1.30;;;;;;;;;;5013366;28;20018;-73
2022/07/16 16:20:43;;;;;;;3.15;1.63;;;;;;;;;;5013664;28;20049;-74
2022/07/16 16:23:10;;;;;;;4.22;2.38;;;;;;;;;;5013965;28;20060;-75
2022/07/16 16:25:36;;;;;;;4.05;2.45;;;;;;;;;;5015813;28;20397;-74
2022/07/16 16:28:04;;;;;;;6.90;2.70;;;;;;;;;;5017407;28;20029;-74
2022/07/16 16:30:31;;;;;;;5.25;2.13;;;;;;;;;;5017351;28;20022;-74
2022/07/16 16:32:58;;;;;;;4.10;1.50;;;;;;;;;;5016967;28;20018;-74
2022/07/16 16:35:24;;;;;;;3.53;1.55;;;;;;;;;;5017224;28;20014;-73
2022/07/16 16:37:51;;;;;;;4.13;1.85;;;;;;;;;;5017252;28;20501;-73